Moose Park, Minnesota
Current Conditions -  °F | °C
As of 11:31 PM on Thursday 27 Nov 2014 (Local Time) from KVWU Reporting Station
Overcast Overcast  
Wind Chill:   Ceiling: 8000
Heat Index:   Visibility: 10mi
Dew Point:   Wind: 0mph
Humidity: 79%   Direction: NA
Pressure: 30.16"   Gusts: NA
Location:  47.7306°N, 94.3762°W
Report Text: KVWU 280531Z AUTO 00000KT 10SM SCT070 OVC080 M14/M17 A3016 RMK AO2
Loading
Personal Weather Stations






























Interactive Weather Map New forecast layout! Learn more

10-Day Weather Forecast

Advertisements
Track Severe Weather on mobile